Decoded Metar for PAAQ (PALMER in AK, USA) (IATA:PAQ) | Meteo·Mobile Aviation Weather
aviador You're here:

PAAQ Decoded Metar

PALMER in AK, USA
Report Time2018-09-18 14:53:00
UTC Time2018-09-18 15:16:55
Flight Rules vfr VFR
WindCalm
Visibility9999 m
Phenomena:N/A
Clouds:Scattered 018 Hf
Broken 036 Hf
Overcast 080 Hf
Expected CloudBase > 800 ft AGL from Temp-Dew spread
Ceiling3,600 ft
Temp09°C (ISA -6)
Dew Point07°C (87% RH)
AAT8.3°C
QNH1023 hPa
Density Alt-623 ft
Elevation240 ft
Report Wrong Elevation
Raw Report
PAAQ 181453Z AUTO 00000KT 10SM SCT018 BKN036 OVC080 09/07 A3020
RMK AO2 SLP228 T00890072 53005 TSNO=

Extra information for PAAQ:More info

Metar Taf Metar & Taf Last 4 Metars F.Rules Stats Wind Profile Meteogram Temp Stats Airport Information Weather charts Add Link Nearby VenuesMetar ALERT Operation Metar Decoded Social comments

AIRNAV info for PAAQ